createdAt,value
2023-02-18T00:03:26.193Z,9.68
2023-02-18T00:08:30.398Z,7.80
2023-02-18T00:13:33.247Z,6.70
2023-02-18T00:18:36.337Z,9.10
2023-02-18T00:23:43.593Z,5.90
2023-02-18T00:28:48.394Z,7.50
2023-02-18T00:33:51.235Z,7.07
2023-02-18T00:38:57.405Z,5.53
2023-02-18T00:44:00.646Z,4.63
2023-02-18T00:49:04.219Z,4.70
2023-02-18T00:54:08.551Z,3.97
2023-02-18T00:59:11.420Z,7.15
2023-02-18T01:04:14.273Z,8.30
2023-02-18T01:09:18.470Z,5.00
2023-02-18T01:14:21.357Z,3.80
2023-02-18T01:19:24.194Z,4.22
2023-02-18T01:24:28.462Z,3.88
2023-02-18T01:29:31.340Z,5.00
2023-02-18T01:34:34.541Z,4.35
2023-02-18T01:39:38.718Z,3.22
2023-02-18T01:44:42.366Z,3.22
2023-02-18T01:49:47.673Z,3.80
2023-02-18T01:54:56.824Z,5.45
2023-02-18T02:00:04.486Z,4.03
2023-02-18T02:05:08.216Z,3.60
2023-02-18T02:10:14.779Z,3.28
2023-02-18T02:15:31.393Z,4.93
2023-02-18T02:21:07.440Z,3.00
2023-02-18T02:26:46.794Z,2.80
2023-02-18T02:32:25.799Z,3.25
2023-02-18T02:37:38.818Z,2.58
2023-02-18T02:42:47.979Z,2.55
2023-02-18T02:47:56.159Z,3.90
2023-02-18T02:53:06.570Z,3.00
2023-02-18T02:58:15.382Z,2.47
2023-02-18T03:03:36.042Z,3.20
2023-02-18T03:08:52.958Z,2.75
2023-02-18T03:14:03.486Z,2.55
2023-02-18T03:19:13.676Z,3.05
2023-02-18T03:24:21.558Z,2.00
2023-02-18T03:29:25.211Z,2.40
2023-02-18T03:34:30.782Z,2.30
2023-02-18T03:39:38.058Z,3.08
2023-02-18T03:44:40.940Z,2.13
2023-02-18T03:49:43.969Z,2.05
2023-02-18T03:54:48.172Z,1.95
2023-02-18T03:59:51.040Z,2.65
2023-02-18T04:04:54.082Z,2.35
2023-02-18T04:09:58.246Z,1.65
2023-02-18T04:15:01.122Z,2.10
2023-02-18T04:20:04.726Z,2.17
2023-02-18T04:25:09.452Z,1.67
2023-02-18T04:30:13.145Z,1.88
2023-02-18T04:35:16.137Z,1.90
2023-02-18T04:40:20.589Z,1.75
2023-02-18T04:45:23.402Z,2.20
2023-02-18T04:50:26.263Z,1.33
2023-02-18T04:55:30.814Z,1.50
2023-02-18T05:00:33.695Z,2.00
2023-02-18T05:05:37.407Z,2.03
2023-02-18T05:10:41.632Z,1.42
2023-02-18T05:15:44.554Z,1.27
2023-02-18T05:20:47.408Z,1.00
2023-02-18T05:25:51.630Z,2.10
2023-02-18T05:30:54.908Z,1.88
2023-02-18T05:35:57.854Z,1.20
2023-02-18T05:41:02.056Z,1.65
2023-02-18T05:46:05.155Z,1.48
2023-02-18T05:51:08.531Z,1.73
2023-02-18T05:56:12.906Z,1.30
2023-02-18T06:01:15.762Z,1.20
2023-02-18T06:06:18.633Z,1.42
2023-02-18T06:11:22.846Z,1.20
2023-02-18T06:16:26.012Z,2.20
2023-02-18T06:21:28.896Z,1.30
2023-02-18T06:26:33.159Z,0.80
2023-02-18T06:31:36.069Z,0.82
2023-02-18T06:36:39.023Z,1.58
2023-02-18T06:41:43.267Z,0.95
2023-02-18T06:46:46.430Z,0.80
2023-02-18T06:51:49.320Z,1.17
2023-02-18T06:56:54.668Z,1.15
2023-02-18T07:01:57.553Z,1.35
2023-02-18T07:07:00.402Z,1.02
2023-02-18T07:12:04.919Z,2.42
2023-02-18T07:17:07.798Z,0.65
2023-02-18T07:22:10.908Z,2.00
2023-02-18T07:27:15.104Z,1.42
2023-02-18T07:32:19.565Z,2.60
2023-02-18T07:37:22.448Z,1.13
2023-02-18T07:42:26.986Z,0.88
2023-02-18T07:47:29.902Z,1.60
2023-02-18T07:52:32.702Z,2.13
2023-02-18T07:57:57.158Z,1.13
2023-02-18T08:03:00.067Z,1.83
2023-02-18T08:08:02.913Z,1.33
2023-02-18T08:13:07.097Z,1.98
2023-02-18T08:18:15.103Z,1.48
2023-02-18T08:23:19.595Z,1.35
2023-02-18T08:28:25.048Z,1.33
2023-02-18T08:33:27.952Z,0.70
2023-02-18T08:38:30.774Z,1.73
2023-02-18T08:43:35.309Z,1.38
2023-02-18T08:48:38.322Z,2.15
2023-02-18T08:53:41.284Z,2.33
2023-02-18T08:58:45.723Z,1.85
2023-02-18T09:03:49.036Z,1.15
2023-02-18T09:08:52.149Z,1.63
2023-02-18T09:13:56.307Z,1.30
2023-02-18T09:18:59.286Z,2.63
2023-02-18T09:24:02.901Z,2.35
2023-02-18T09:29:07.248Z,1.40
2023-02-18T09:34:10.066Z,1.25
2023-02-18T09:39:13.934Z,2.13
2023-02-18T09:44:23.999Z,2.13
2023-02-18T09:49:28.991Z,2.35
2023-02-18T09:54:31.877Z,1.80
2023-02-18T09:59:36.223Z,3.33
2023-02-18T10:04:44.943Z,5.72
2023-02-18T10:09:49.870Z,4.60
2023-02-18T10:14:56.180Z,7.35
2023-02-18T10:20:00.577Z,2.75
2023-02-18T10:25:07.985Z,6.00
2023-02-18T10:30:25.343Z,4.00
2023-02-18T10:35:35.600Z,4.68
2023-02-18T10:40:49.581Z,3.28
2023-02-18T10:46:00.949Z,6.00
2023-02-18T10:51:13.871Z,3.63
2023-02-18T10:56:39.094Z,4.53
2023-02-18T11:01:45.263Z,2.38
2023-02-18T11:06:50.234Z,7.57
2023-02-18T11:12:07.914Z,1.70
2023-02-18T11:17:19.612Z,1.63
2023-02-18T11:22:24.429Z,1.73
2023-02-18T11:27:32.707Z,2.70
2023-02-18T11:32:37.986Z,1.05
2023-02-18T11:37:41.021Z,2.00
2023-02-18T11:42:44.005Z,0.98
2023-02-18T11:48:00.460Z,1.02
2023-02-18T11:53:27.589Z,1.52
2023-02-18T11:58:39.134Z,0.80
2023-02-18T12:03:49.628Z,1.52
2023-02-18T12:08:55.228Z,0.90
2023-02-18T12:13:59.551Z,1.00
2023-02-18T12:19:41.043Z,1.85
2023-02-18T12:25:00.742Z,1.10
2023-02-18T12:30:31.817Z,1.73
2023-02-18T12:35:48.207Z,1.15
2023-02-18T12:41:08.107Z,1.50
2023-02-18T12:46:24.733Z,0.80
2023-02-18T12:51:39.515Z,0.95
2023-02-18T12:56:55.110Z,2.30
2023-02-18T13:02:05.995Z,6.40
2023-02-18T13:07:36.769Z,9.90
2023-02-18T13:12:46.776Z,6.20
2023-02-18T13:17:50.937Z,6.20
2023-02-18T13:22:55.342Z,4.47
2023-02-18T13:28:09.842Z,3.75
2023-02-18T13:33:19.001Z,4.95
2023-02-18T13:38:49.813Z,3.67
2023-02-18T13:43:53.638Z,5.18
2023-02-18T13:49:06.805Z,3.55
2023-02-18T13:54:19.916Z,2.67
2023-02-18T13:59:29.201Z,3.67
2023-02-18T14:04:53.875Z,3.33
2023-02-18T14:09:59.379Z,3.90
2023-02-18T14:15:02.309Z,2.05
2023-02-18T14:20:44.990Z,3.20
2023-02-18T14:25:57.188Z,4.22
2023-02-18T14:31:03.129Z,4.35
2023-02-18T14:36:18.176Z,3.25
2023-02-18T14:41:36.038Z,4.22
2023-02-18T14:46:52.026Z,2.63
2023-02-18T14:51:57.625Z,2.53
2023-02-18T14:57:05.322Z,2.85
2023-02-18T15:02:21.328Z,4.53
2023-02-18T15:07:24.488Z,2.00
2023-02-18T15:12:30.101Z,1.88
2023-02-18T15:17:33.254Z,2.30
2023-02-18T15:22:37.339Z,2.97
2023-02-18T15:27:45.805Z,1.75
2023-02-18T15:32:53.008Z,2.78
2023-02-18T15:37:57.423Z,2.20
2023-02-18T15:43:03.512Z,1.48
2023-02-18T15:48:07.119Z,1.70
2023-02-18T15:53:15.824Z,1.23
2023-02-18T15:58:23.392Z,1.30
2023-02-18T16:03:27.722Z,3.13
2023-02-18T16:08:30.700Z,1.33
2023-02-18T16:13:36.711Z,2.42
2023-02-18T16:18:41.246Z,1.60
2023-02-18T16:23:54.342Z,2.25
2023-02-18T16:29:06.212Z,2.08
2023-02-18T16:34:09.170Z,6.75
2023-02-18T16:39:12.026Z,4.00
2023-02-18T16:44:16.569Z,3.85
2023-02-18T16:49:20.246Z,60.65
2023-02-18T16:54:23.183Z,35.13
2023-02-18T16:59:27.341Z,23.48
2023-02-18T17:04:30.335Z,17.15
2023-02-18T17:09:33.309Z,13.85
2023-02-18T17:14:37.518Z,9.85
2023-02-18T17:19:40.389Z,8.32
2023-02-18T17:24:43.325Z,7.55
2023-02-18T17:29:47.556Z,8.45
2023-02-18T17:34:50.429Z,5.55
2023-02-18T17:39:54.416Z,4.93
2023-02-18T17:44:58.768Z,4.57
2023-02-18T17:50:01.566Z,4.50
2023-02-18T17:55:17.689Z,4.07
2023-02-18T18:00:24.701Z,5.25
2023-02-18T18:05:30.249Z,3.38
2023-02-18T18:10:35.798Z,4.03
2023-02-18T18:15:41.770Z,3.13
2023-02-18T18:20:46.706Z,4.05
2023-02-18T18:25:51.063Z,3.50
2023-02-18T18:30:56.868Z,3.17
2023-02-18T18:36:00.663Z,3.00
2023-02-18T18:41:03.452Z,3.05
2023-02-18T18:46:07.761Z,2.78
2023-02-18T18:51:15.913Z,4.15
2023-02-18T18:56:19.082Z,2.78
2023-02-18T19:01:27.145Z,6.22
2023-02-18T19:06:30.193Z,3.25
2023-02-18T19:11:33.032Z,2.88
2023-02-18T19:16:40.504Z,2.50
2023-02-18T19:21:43.317Z,2.20
2023-02-18T19:26:46.187Z,6.13
2023-02-18T19:31:50.922Z,2.70
2023-02-18T19:36:54.026Z,2.55
2023-02-18T19:41:56.921Z,2.70
2023-02-18T19:47:01.922Z,2.08
2023-02-18T19:52:04.950Z,2.25
2023-02-18T19:57:07.878Z,2.03
2023-02-18T20:02:14.686Z,1.75
2023-02-18T20:07:19.293Z,2.33
2023-02-18T20:12:22.410Z,2.65
2023-02-18T20:17:26.836Z,2.35
2023-02-18T20:22:29.755Z,2.13
2023-02-18T20:27:33.925Z,2.50
2023-02-18T20:32:39.295Z,8.45
2023-02-18T20:37:42.105Z,5.18
2023-02-18T20:42:44.999Z,11.73
2023-02-18T20:47:49.181Z,5.63
2023-02-18T20:52:53.242Z,2.35
2023-02-18T20:57:56.066Z,5.05
2023-02-18T21:03:00.253Z,2.35
2023-02-18T21:08:03.141Z,2.83
2023-02-18T21:13:06.033Z,2.70
2023-02-18T21:18:10.192Z,2.03
2023-02-18T21:23:13.396Z,2.05
2023-02-18T21:28:16.426Z,3.42
2023-02-18T21:33:20.617Z,5.90
2023-02-18T21:38:23.442Z,3.10
2023-02-18T21:43:26.574Z,2.17
2023-02-18T21:48:48.238Z,6.07
2023-02-18T21:53:51.143Z,9.63
2023-02-18T21:58:54.937Z,4.28
2023-02-18T22:03:59.155Z,2.90
2023-02-18T22:09:02.556Z,5.47
2023-02-18T22:14:05.694Z,3.45
2023-02-18T22:19:11.758Z,3.88
2023-02-18T22:24:15.581Z,2.28
2023-02-18T22:29:20.322Z,5.30
2023-02-18T22:34:24.845Z,4.65
2023-02-18T22:39:27.684Z,2.90
2023-02-18T22:44:30.533Z,7.70
2023-02-18T22:49:34.768Z,5.25
2023-02-18T22:54:37.629Z,3.03
2023-02-18T22:59:41.470Z,2.42
2023-02-18T23:04:45.800Z,2.13
2023-02-18T23:09:48.659Z,3.50
2023-02-18T23:14:51.487Z,1.80
2023-02-18T23:19:55.695Z,3.05
2023-02-18T23:24:58.856Z,1.70
2023-02-18T23:30:01.835Z,3.22
2023-02-18T23:35:06.588Z,1.92
2023-02-18T23:40:10.176Z,2.22
2023-02-18T23:45:13.014Z,2.30
2023-02-18T23:50:17.636Z,2.20
2023-02-18T23:55:20.458Z,1.88
